Terminal Aerodrome Forecast
Issued by NWS

Home | Current Version | Previous Version | Text Only | Print | Product List | Glossary On
Versions: 1 2 3 4 5 6 7 8 9 10 11 12 13 14 15 16 17 18 19
672
FTUS43 KBIS 130525
TAFJMS
TAF
KJMS 130525Z 1306/1406 VRB03KT P6SM SCT200
     FM131000 14007KT P6SM BKN200
     FM131400 15012KT P6SM BKN140
     FM132000 15017KT P6SM -SN OVC025
     FM132300 15016KT 4SM -SN BR OVC010
     FM140000 15016KT 1SM -SN BR OVC010=

USA.gov is the U.S. government's official web portal to all federal, state and local government web resources and services.